16:37
Airports
History
Links
Donate
Help keep this website running!
PayPal
Bitcoin
This page is community maintained. The information is intended for PC simulator navigation or reference.
Always use approved charts for navigation.
LICP
BOCCADIFALCO
BOCCADIFALCO (LICP)
Palermo, Sicily, Italy (90135)
(U)
Lat/Lng:38° 6' 37.9" N / 13° 18' 48.13" E
38.110527 / 13.31337
Elevation:345'ft / 105mMSL
ID / ICAO:LICP
Runways:1
Longest:17-35
Asphalt 1,223m / 4,013ft
METAR17:55 GMT 2009-01-11
Altimeter: 30.18
Visibility: 6.2 statute miles
Wind: 9 knots (from 100°)
Temp: 13°c / 55°f
Humidity: 87.6%

METAR: LICP 111755Z 10009KT 9999 BKN015 13/11 Q1022 RMK BKN VIS MIN 9999 WHT

(Powered by phpweather)
Airport Radio Frequencies
Tower: 122.1, 122.6
Approach: 120.2
Nearby VORs <50NM
Nearby NDBs
Runway 17 / 35
Dimensions:1223.1 x 45.1m 4013' x 148'ft
Surface:Asphalt
Runway 17 [A]Runway 35 [B]
Heading:174°TH 354°TH
Lat:
Lng:
38° 6' 57.66"N
13° 18' 45.8"E
38° 6' 18.13"N
13° 18' 50.46"E
User Notes and Comments
38° 6' 37.9" N / 13° 18' 48.13" E
Distance To
Airport ID:
Nearby Airports
(C) PALERMO 12.3 NM
LICJ ( WX ) WNW 291°
(C) TRAPANI BIRGI 47.0 NM
LICT ( WX ) WSW 252°
(C) SIGONELLA 100.6 NM
LICZ ( WX ) ESE 119°
(C) Magliocco 104.7 NM
LICB SE 137°
(C) Catania Fontanarossa 105.5 NM
LICC ( WX ) ESE 114°
(C) PANTELLERIA 116.2 NM
LICG ( WX ) SW 219°
(C) Reggio Calabria 127.0 NM
LICR ( WX ) E 91°
VFR Chart
Flight Planning at SkyVector.com